METAR

ENBN 202150Z 20008KT 9999 SCT031 14/11 Q1002

ENMS 202020Z 35003KT 9999 FEW028 SCT050 14/12 Q1002 RMK WIND 412FT VRB01KT

ENNM 201950Z 26005KT 180V320 9999 VCSH FEW036 SCT150 17/11 Q1001

ENOL 202150Z 23007KT 9999 FEW010 BKN080 12/11 Q1004

ENST 202120Z 03003KT 9999 FEW040 SCT060 15/11 Q1001 RMK WIND 300FT 05003KT

ENVA 202150Z 25006KT 9000 -RA FEW013 SCT031 OVC059 14/12 Q1004 RMK WIND 670FT 28010KT



TAF

TAF ENVA 2018/2118 27012KT 9999 FEW020 BKN040 BECMG 2019/2022 VRB07KT TEMPO 2018/2118 SHRA BKN012 SCT025CB PROB30 TEMPO 2018/2024 4000 TSRA